Pontiac, MI

12:40 AM EST on December 25, 2014 (GMT -0500)
2 mi SE of the Palace | Change Station
CLOSE
Current Station
Personal Weather Station
Location: Auburn Hills, MI
Elevation: 950 ft
Nearby Weather Stations

Elev 950 ft 42.67 °N, 83.23 °W | Updated 12 seconds ago

Overcast
Overcast
34.9 °F
Feels Like 31 °F
N
4.9
Wind Variable Wind from SW
Gusts 9.1 mph

Today
High -- | Low -- °F
--% Chance of Precip.
Yesterday
High -- | Low -- °F
Precip. -- in
8:01 AM 5:04 PM
Waxing Crescent, 13% visible
Pressure 29.45 in
Visibility 9.0 miles
Clouds Overcast 700 ft
Windchill 31 °F
Dew Point 34 °F
Humidity 95%
Rainfall 0.00 in
Snow Depth Not available.
UV 0 out of 12
Pollen .10 out of 12
Air Quality Not available.
Flu Activity Not available.
METAR KPTK 250453Z 25013G20KT 9SM -SN OVC007 01/01 A2943 RMK AO2 SLP973 LAST AUGMENTED OBS NEXT 11Z P0000 T00110006 400720006 $

More Conditions Fewer Conditions

Pressure 29.45 in
Visibility 9.0 miles
Clouds Overcast 700 ft
Windchill 31 °F
Dew Point 34 °F
Humidity 95%
Rainfall 0.00 in
Snow Depth Not available.
UV 0 out of 12
Pollen .10 out of 12
Air Quality Not available.
Flu Activity Not available.
METAR KPTK 250453Z 25013G20KT 9SM -SN OVC007 01/01 A2943 RMK AO2 SLP973 LAST AUGMENTED OBS NEXT 11Z P0000 T00110006 400720006 $

More Conditions Fewer Conditions

10-Day Weather Forecast

Almanac

Astronomy

Dec. 25, 2014 Rise Set
Actual Time
Civil Twilight
Nautical Twilight
Astronomical Twilight
Moon
Length of Visible Light
Length of Day
Tomorrow will be .
, % of the Moon is Illuminated

Today's Extremes

State Highs State Lows

Community

WunderPhotos

Upload Photos

1,780,244 photos uploaded!

WunderBlogs® & News

Nearby

Air Quality

  Air Quality AQ Index Pollutant
Not available.

Snow Depth

Station Depth Elevation

Earthquake Activity

City Distance Mag. Time & Date
Minimum magnitude displayed is 2.5.

Coastal Water Temperatures

Place Temperature

Nearby Weather Stations